Eggemoen Airport


Codes: ENEG/
Name: Eggemoen Airport
City: Honefoss
Country: Norway
Elevation: 656 ft.

Photos at Eggemoen Airport


   Photos courtesy of SpottingLog. You can add your own sightings and photos by signing up for a free trial today.



No photos found.

Weather at Eggemoen Airport


Time (UTC)DescriptionTempratureWindCloud coverageVisibilityPressureHumidity
16-Jun-2024 12:00Light Rain15°C7 mph, SE87%10000m1007hPa84%
16-Jun-2024 15:00Light Rain16°C9 mph, S65%10000m1007hPa68%
16-Jun-2024 18:00Light Rain14°C7 mph, SE59%10000m1008hPa87%
16-Jun-2024 21:00Light Rain10°C2 mph, E85%10000m1010hPa96%
17-Jun-2024 00:00Overcast Clouds10°C4 mph, NE93%10000m1010hPa96%
17-Jun-2024 03:00Light Rain11°C4 mph, NE100%10000m1008hPa98%
17-Jun-2024 06:00Moderate Rain11°C4 mph, E100%3361m1008hPa99%
17-Jun-2024 09:00Light Rain13°C4 mph, SE100%10000m1009hPa91%
17-Jun-2024 12:00Light Rain13°C4 mph, SE97%10000m1010hPa92%
17-Jun-2024 15:00Light Rain16°C4 mph, S81%10000m1009hPa77%
17-Jun-2024 18:00Light Rain15°C7 mph, S47%10000m1008hPa78%
17-Jun-2024 21:00Few Clouds10°C4 mph, SE24%10000m1010hPa97%
18-Jun-2024 00:00Broken Clouds8°C2 mph, SE53%10000m1010hPa99%
18-Jun-2024 03:00Light Rain9°C2 mph, E100%5882m1009hPa99%
18-Jun-2024 06:00Light Rain12°C2 mph, SE100%10000m1008hPa94%
18-Jun-2024 09:00Light Rain12°C2 mph, SE100%10000m1008hPa90%
18-Jun-2024 12:00Light Rain14°C2 mph, SW100%7519m1006hPa85%
18-Jun-2024 15:00Light Rain14°C4 mph, S100%9890m1006hPa87%
18-Jun-2024 18:00Light Rain15°C2 mph, SE68%10000m1004hPa75%
18-Jun-2024 21:00Light Rain10°C2 mph, SE42%10000m1005hPa96%
19-Jun-2024 00:00Light Rain10°C7 mph, N71%10000m1006hPa98%
19-Jun-2024 03:00Light Rain9°C7 mph, N100%10000m1007hPa97%
19-Jun-2024 06:00Light Rain9°C4 mph, N100%10000m1009hPa93%
19-Jun-2024 09:00Overcast Clouds15°C4 mph, N99%10000m1009hPa56%
19-Jun-2024 12:00Overcast Clouds17°C2 mph, S100%10000m1008hPa49%
19-Jun-2024 15:00Overcast Clouds18°C7 mph, S96%10000m1007hPa48%
19-Jun-2024 18:00Overcast Clouds17°C7 mph, SW96%10000m1005hPa45%
19-Jun-2024 21:00Overcast Clouds13°C7 mph, SW98%10000m1004hPa67%
20-Jun-2024 00:00Overcast Clouds9°C7 mph, SW86%10000m1005hPa71%
20-Jun-2024 03:00Broken Clouds7°C4 mph, SW72%10000m1006hPa83%
20-Jun-2024 06:00Overcast Clouds14°C9 mph, SW85%10000m1005hPa59%
20-Jun-2024 09:00Overcast Clouds18°C11 mph, W99%10000m1005hPa34%
20-Jun-2024 12:00Broken Clouds20°C16 mph, W82%10000m1004hPa26%
20-Jun-2024 15:00Clear Sky21°C11 mph, W0%10000m1004hPa28%
20-Jun-2024 18:00Few Clouds18°C11 mph, SW15%10000m1005hPa38%
20-Jun-2024 21:00Overcast Clouds12°C7 mph, SW100%10000m1006hPa48%
21-Jun-2024 00:00Overcast Clouds8°C4 mph, SW100%10000m1007hPa66%
21-Jun-2024 03:00Few Clouds7°C2 mph, N17%10000m1008hPa74%
21-Jun-2024 06:00Scattered Clouds13°C2 mph, N29%10000m1009hPa53%
21-Jun-2024 09:00Clear Sky19°C2 mph, SW10%10000m1008hPa35%